Accueil
METAR-TAF:

METAR-TAF

Aéroports :

Aéroport de Nouadhibou

Nouadhibou, Mauritanie

latitude: 20-56N, longitude: 017-02W, altitude: 5 m

Observation

Le bulletin a été fait il y a 13 minutes, à 08:00 UTC
Vent 6 kt de nord/nord-est
Température 17°C
Humidité 88%
Pression 1015 hPa
Visibilité 10 km ou plus
pas de nuages en-dessous de 1500 mètres et pas de cumulonimbus.

METAR: GQPP 300800Z 03006KT CAVOK 17/15 Q1015 NOSIG

Heure: 08:13 (08:13 UTC)

Prévision

Le bulletin a été fait il y a 3 heures et 13 minutes, à 05:00 UTC
Prévision valable du 30 à 06 UTC au 01 à 06 UTC
Vent 10 kt de nord
Visibilité: 8000 m
Probabilité 30% :
Temporairement
du 30 à 06 UTC au 30 à 08 UTC
Nuages fragmentés à une hauteur de 600 ft

TAF: GQPP 300500Z 3006/0106 36010KT 8000 NSC PROB30 TEMPO 3006/3008 BKN006

Observations et prévisions météorologiques de plus de 4000 aéroports (messages METAR et TAF).

Les stations disponibles sont représentées par des disques jaunes et rouges sur la carte.

Passer la souris dessus pour voir le nom de la station.

Cliquer dessus pour voir les observations et prévisions météorologiques.

Pour changer de carte: cliquez sur les boutons verts avec une croix noire pour zoomer, sur le bouton vert avec un tiret pour effectuer un zoom arrière, ou sur les flèches vertes pour les cartes adjacentes.


METAR-TAF: